This is the latest recevied weather packets stored in our database for station/object OK2ILA-14. If no packets are shown the sender has not sent any weather packets the latest 10 day(s).
| Time | Temp. | Humidity | Pressure | Rain* | Wind** | Luminosity | Snow |
|---|---|---|---|---|---|---|---|
| 1777673654 | 7.22° C | 75% | 1024.6 hPa | - | - | - | - |
| 1777673061 | 7.78° C | 74% | 1024.6 hPa | - | - | - | - |
| 1777672454 | 7.78° C | 74% | 1024.6 hPa | - | - | - | - |
| 1777671854 | 7.78° C | 74% | 1024.7 hPa | - | - | - | - |
| 1777671256 | 7.78° C | 73% | 1024.6 hPa | - | - | - | - |
| 1777670652 | 7.78° C | 73% | 1024.6 hPa | - | - | - | - |
| 1777670052 | 8.33° C | 71% | 1024.5 hPa | - | - | - | - |
| 1777669452 | 8.33° C | 70% | 1024.6 hPa | - | - | - | - |
| 1777668852 | 8.33° C | 72% | 1024.6 hPa | - | - | - | - |
| 1777668252 | 8.33° C | 71% | 1024.4 hPa | - | - | - | - |
| 1777667652 | 8.33° C | 70% | 1024.5 hPa | - | - | - | - |
| 1777667051 | 8.89° C | 69% | 1024.4 hPa | - | - | - | - |
| 1777666451 | 8.89° C | 68% | 1024.4 hPa | - | - | - | - |
| 1777665851 | 8.89° C | 66% | 1024.4 hPa | - | - | - | - |
| 1777665251 | 10° C | 64% | 1024.3 hPa | - | - | - | - |
| 1777664651 | 9.44° C | 65% | 1024.2 hPa | - | - | - | - |
| 1777664051 | 8.89° C | 67% | 1024.2 hPa | - | - | - | - |
| 1777663451 | 9.44° C | 64% | 1024.1 hPa | - | - | - | - |
| 1777662850 | 10° C | 61% | 1024 hPa | - | - | - | - |
| 1777662250 | 11.11° C | 56% | 1023.9 hPa | - | - | - | - |
| 1777661650 | 12.78° C | 50% | 1023.8 hPa | - | - | - | - |
| 1777661050 | 13.89° C | 47% | 1023.6 hPa | - | - | - | - |
| 1777660450 | 14.44° C | 44% | 1023.5 hPa | - | - | - | - |
| 1777659850 | 15.56° C | 42% | 1023.4 hPa | - | - | - | - |
| 1777659250 | 16.11° C | 40% | 1023.2 hPa | - | - | - | - |
* Rain since midnight (hover to see other rain measurements)
** Current wind speed in m/s (hover to see current wind gust speed)